Fukushima Airport
RJSF : now visible

Airfield :











YOU CAN JOIN US ON...

 
LOGIN :

Register | Disclaimer

   EN    FR    IT 

 









Legend :    VFR   Marginal VFR   IFR   Intensive IFR   Very Intensive IFR
Visi :
Ceiling :
>= 8 km
>= 3000ft
5 to 8 km
1000 to 3000 ft
1500m to 5 km
500 to 1000 ft
800 to 1500m
200 to 500 ft
< 800m
< 200 ft
Symbols :   Thunderstorms  Fog  Heavy snow  Heavy precipitations  Wind > 20 kt






- Airport Elevation : 1221 ft
- IATA code : FKS


RJSF - Fukushima

CURRENT METAR :
  • 121000Z 31006KT 270V350 9999 FEW030 SCT035 BKN040 11/05 Q1018

EXPIRED METARs :
  • 120900Z 34007KT 300V020 9999 FEW035 SCT050 11/05 Q1018
  • 120800Z 35006KT 310V030 9999 FEW040 12/03 Q1017

TAF TAF RJSF
Valid from the 12 at 06:00 until the 13 at 12:00 UTC


120505Z 1206/1312 32013KT 9999 FEW030
TEMPO 1206/1208 32015G25KT
BECMG 1300/1303 18010KT



MET'MAP, your aeronautical weather chart ! - Copyright ORBIFLY December 2007 - Disclaimer

ORBIFLY MET'MAP TEAM :

Programming & Development : Alexandra Zaïnal
Concept & Development : Baudouin d'Aumeries
Co-Development & Prog : Marc-Olivier Méhu
Technical & hardware support : Manuel Goepfert

Contact : metmap@orbifly.com




SOURCES & CREDITS :

   NOAA       Earth
Advisory